sensor_id;sensor_type;location;lat;lon;timestamp;P1;P2;P0
55449;PMS5003;41318;58.724;50.180;2023-04-15T00:02:29;8.60;8.60;6.80
55449;PMS5003;41318;58.724;50.180;2023-04-15T00:05:00;16.50;16.00;11.50
55449;PMS5003;41318;58.724;50.180;2023-04-15T00:07:31;18.60;18.60;13.40
55449;PMS5003;41318;58.724;50.180;2023-04-15T00:10:03;33.20;32.00;21.20
55449;PMS5003;41318;58.724;50.180;2023-04-15T00:12:34;28.80;28.00;17.20
55449;PMS5003;41318;58.724;50.180;2023-04-15T00:15:06;37.60;32.20;19.80
55449;PMS5003;41318;58.724;50.180;2023-04-15T00:17:38;37.60;33.40;19.20
55449;PMS5003;41318;58.724;50.180;2023-04-15T00:20:10;34.00;31.20;22.80
55449;PMS5003;41318;58.724;50.180;2023-04-15T00:22:41;37.40;32.80;22.60
55449;PMS5003;41318;58.724;50.180;2023-04-15T00:25:12;24.40;21.40;12.60
55449;PMS5003;41318;58.724;50.180;2023-04-15T00:27:43;22.50;21.75;15.50
55449;PMS5003;41318;58.724;50.180;2023-04-15T00:30:14;22.50;22.50;16.50
55449;PMS5003;41318;58.724;50.180;2023-04-15T00:32:46;31.20;29.00;20.80
55449;PMS5003;41318;58.724;50.180;2023-04-15T00:35:18;38.60;35.60;23.60
55449;PMS5003;41318;58.724;50.180;2023-04-15T00:37:49;43.50;40.25;26.00
55449;PMS5003;41318;58.724;50.180;2023-04-15T00:40:22;28.80;26.60;16.80
55449;PMS5003;41318;58.724;50.180;2023-04-15T00:42:54;25.80;23.40;15.40
55449;PMS5003;41318;58.724;50.180;2023-04-15T00:45:43;39.60;30.60;16.80
55449;PMS5003;41318;58.724;50.180;2023-04-15T00:48:16;18.40;15.00;8.80
55449;PMS5003;41318;58.724;50.180;2023-04-15T00:50:48;34.80;30.00;20.20
55449;PMS5003;41318;58.724;50.180;2023-04-15T00:53:19;52.40;45.80;25.00
55449;PMS5003;41318;58.724;50.180;2023-04-15T00:56:08;49.60;40.20;25.60
55449;PMS5003;41318;58.724;50.180;2023-04-15T00:58:39;75.00;49.00;26.80
55449;PMS5003;41318;58.724;50.180;2023-04-15T01:01:11;39.80;34.00;16.20
55449;PMS5003;41318;58.724;50.180;2023-04-15T01:03:42;62.60;52.60;32.20
55449;PMS5003;41318;58.724;50.180;2023-04-15T01:06:13;71.60;45.40;27.40
55449;PMS5003;41318;58.724;50.180;2023-04-15T01:08:44;48.00;36.50;22.00
55449;PMS5003;41318;58.724;50.180;2023-04-15T01:11:15;53.00;42.40;25.00
55449;PMS5003;41318;58.724;50.180;2023-04-15T01:13:46;75.80;54.00;33.20
55449;PMS5003;41318;58.724;50.180;2023-04-15T01:16:18;45.40;36.20;19.80
55449;PMS5003;41318;58.724;50.180;2023-04-15T01:18:50;65.00;48.40;27.20
55449;PMS5003;41318;58.724;50.180;2023-04-15T01:21:23;43.20;36.80;24.20
55449;PMS5003;41318;58.724;50.180;2023-04-15T01:23:54;55.80;46.80;30.00
55449;PMS5003;41318;58.724;50.180;2023-04-15T01:26:26;42.00;32.60;21.40
55449;PMS5003;41318;58.724;50.180;2023-04-15T01:28:57;50.00;39.40;23.60
55449;PMS5003;41318;58.724;50.180;2023-04-15T01:31:28;47.40;40.80;24.40
55449;PMS5003;41318;58.724;50.180;2023-04-15T01:34:01;50.40;41.60;24.00
55449;PMS5003;41318;58.724;50.180;2023-04-15T01:37:09;43.00;32.20;17.40
55449;PMS5003;41318;58.724;50.180;2023-04-15T01:39:41;49.20;43.80;26.20
55449;PMS5003;41318;58.724;50.180;2023-04-15T01:42:12;37.25;32.25;22.50
55449;PMS5003;41318;58.724;50.180;2023-04-15T01:44:44;42.00;33.00;17.60
55449;PMS5003;41318;58.724;50.180;2023-04-15T01:47:17;26.60;20.20;9.00
55449;PMS5003;41318;58.724;50.180;2023-04-15T01:49:49;24.60;23.20;14.80
55449;PMS5003;41318;58.724;50.180;2023-04-15T01:52:22;29.20;24.60;12.60
55449;PMS5003;41318;58.724;50.180;2023-04-15T01:54:55;19.00;16.00;9.80
55449;PMS5003;41318;58.724;50.180;2023-04-15T01:57:27;30.80;21.20;13.40
55449;PMS5003;41318;58.724;50.180;2023-04-15T01:59:59;1.00;0.00;0.00
55449;PMS5003;41318;58.724;50.180;2023-04-15T02:02:31;20.40;18.20;13.00
55449;PMS5003;41318;58.724;50.180;2023-04-15T02:05:04;23.00;20.80;12.40
55449;PMS5003;41318;58.724;50.180;2023-04-15T02:07:55;28.20;24.00;12.40
55449;PMS5003;41318;58.724;50.180;2023-04-15T02:10:27;26.60;24.80;16.00
55449;PMS5003;41318;58.724;50.180;2023-04-15T02:12:59;10.80;8.80;3.00
55449;PMS5003;41318;58.724;50.180;2023-04-15T02:15:33;23.80;21.00;15.20
55449;PMS5003;41318;58.724;50.180;2023-04-15T02:18:05;27.40;25.60;16.20
55449;PMS5003;41318;58.724;50.180;2023-04-15T02:20:38;8.40;7.40;5.00
55449;PMS5003;41318;58.724;50.180;2023-04-15T02:23:10;11.20;8.20;5.20
55449;PMS5003;41318;58.724;50.180;2023-04-15T02:25:42;19.40;18.20;11.20
55449;PMS5003;41318;58.724;50.180;2023-04-15T02:28:14;18.80;18.80;13.60
55449;PMS5003;41318;58.724;50.180;2023-04-15T02:31:05;21.20;13.80;7.00
55449;PMS5003;41318;58.724;50.180;2023-04-15T02:33:37;22.60;18.40;12.20
55449;PMS5003;41318;58.724;50.180;2023-04-15T02:36:09;15.40;14.20;11.20
55449;PMS5003;41318;58.724;50.180;2023-04-15T02:38:43;16.00;16.00;11.60
55449;PMS5003;41318;58.724;50.180;2023-04-15T02:41:16;13.80;13.80;11.60
55449;PMS5003;41318;58.724;50.180;2023-04-15T02:43:50;14.60;9.80;6.00
55449;PMS5003;41318;58.724;50.180;2023-04-15T02:46:22;11.60;11.60;7.80
55449;PMS5003;41318;58.724;50.180;2023-04-15T02:48:54;6.60;6.60;5.60
55449;PMS5003;41318;58.724;50.180;2023-04-15T02:51:29;22.80;22.80;16.60
55449;PMS5003;41318;58.724;50.180;2023-04-15T02:54:02;16.60;16.60;10.80
55449;PMS5003;41318;58.724;50.180;2023-04-15T02:56:34;14.20;14.20;7.80
55449;PMS5003;41318;58.724;50.180;2023-04-15T02:59:06;17.60;17.60;11.60
55449;PMS5003;41318;58.724;50.180;2023-04-15T03:01:38;7.20;7.20;1.00
55449;PMS5003;41318;58.724;50.180;2023-04-15T03:04:10;9.00;7.40;4.00
55449;PMS5003;41318;58.724;50.180;2023-04-15T03:06:42;39.20;37.00;24.40
55449;PMS5003;41318;58.724;50.180;2023-04-15T03:09:15;22.00;22.00;12.40
55449;PMS5003;41318;58.724;50.180;2023-04-15T03:11:48;28.80;28.00;16.80
55449;PMS5003;41318;58.724;50.180;2023-04-15T03:14:21;21.20;20.60;12.80
55449;PMS5003;41318;58.724;50.180;2023-04-15T03:17:12;20.00;20.00;17.60
55449;PMS5003;41318;58.724;50.180;2023-04-15T03:19:44;45.40;42.40;30.40
55449;PMS5003;41318;58.724;50.180;2023-04-15T03:22:35;45.60;44.20;29.20
55449;PMS5003;41318;58.724;50.180;2023-04-15T03:25:08;20.80;20.80;17.20
55449;PMS5003;41318;58.724;50.180;2023-04-15T03:27:42;34.40;31.80;22.40
55449;PMS5003;41318;58.724;50.180;2023-04-15T03:30:14;20.80;20.60;15.40
55449;PMS5003;41318;58.724;50.180;2023-04-15T03:32:46;36.00;33.00;21.60
55449;PMS5003;41318;58.724;50.180;2023-04-15T03:35:18;19.00;19.00;12.40
55449;PMS5003;41318;58.724;50.180;2023-04-15T03:37:50;25.80;25.80;19.60
55449;PMS5003;41318;58.724;50.180;2023-04-15T03:40:41;18.20;16.80;10.80
55449;PMS5003;41318;58.724;50.180;2023-04-15T03:43:14;5.20;5.20;3.80
55449;PMS5003;41318;58.724;50.180;2023-04-15T03:45:46;5.00;5.00;4.00
55449;PMS5003;41318;58.724;50.180;2023-04-15T03:48:18;4.00;4.00;4.00
55449;PMS5003;41318;58.724;50.180;2023-04-15T03:50:50;4.60;4.60;2.00
55449;PMS5003;41318;58.724;50.180;2023-04-15T03:53:22;7.00;7.00;5.20
55449;PMS5003;41318;58.724;50.180;2023-04-15T03:55:54;15.40;15.40;12.80
55449;PMS5003;41318;58.724;50.180;2023-04-15T03:58:46;7.00;7.00;4.20
55449;PMS5003;41318;58.724;50.180;2023-04-15T04:01:18;10.40;8.80;6.60
55449;PMS5003;41318;58.724;50.180;2023-04-15T04:04:09;5.80;5.80;4.00
55449;PMS5003;41318;58.724;50.180;2023-04-15T04:06:41;2.00;2.00;0.80
55449;PMS5003;41318;58.724;50.180;2023-04-15T04:09:13;9.60;9.60;6.80
55449;PMS5003;41318;58.724;50.180;2023-04-15T04:12:04;13.00;13.00;8.80
55449;PMS5003;41318;58.724;50.180;2023-04-15T04:14:54;11.40;11.40;7.60
55449;PMS5003;41318;58.724;50.180;2023-04-15T04:17:27;10.20;10.20;7.40
55449;PMS5003;41318;58.724;50.180;2023-04-15T04:19:59;7.20;5.00;4.00
55449;PMS5003;41318;58.724;50.180;2023-04-15T04:22:32;11.00;11.00;10.00
55449;PMS5003;41318;58.724;50.180;2023-04-15T04:25:08;5.00;5.00;2.40
55449;PMS5003;41318;58.724;50.180;2023-04-15T04:27:41;2.00;2.00;1.00
55449;PMS5003;41318;58.724;50.180;2023-04-15T04:30:13;20.40;20.20;18.20
55449;PMS5003;41318;58.724;50.180;2023-04-15T04:32:45;8.00;8.00;7.20
55449;PMS5003;41318;58.724;50.180;2023-04-15T04:35:17;19.40;13.40;9.40
55449;PMS5003;41318;58.724;50.180;2023-04-15T04:37:49;8.00;8.00;5.20
55449;PMS5003;41318;58.724;50.180;2023-04-15T04:40:21;6.20;6.20;6.00
55449;PMS5003;41318;58.724;50.180;2023-04-15T04:42:53;4.20;4.20;2.40
55449;PMS5003;41318;58.724;50.180;2023-04-15T04:45:25;7.20;7.00;4.20
55449;PMS5003;41318;58.724;50.180;2023-04-15T04:47:57;18.80;14.80;9.00
55449;PMS5003;41318;58.724;50.180;2023-04-15T04:50:30;16.00;12.40;7.00
55449;PMS5003;41318;58.724;50.180;2023-04-15T04:53:02;2.00;2.00;1.00
55449;PMS5003;41318;58.724;50.180;2023-04-15T04:55:34;4.40;4.00;1.00
55449;PMS5003;41318;58.724;50.180;2023-04-15T04:58:10;9.00;9.00;7.00
55449;PMS5003;41318;58.724;50.180;2023-04-15T05:00:42;4.60;4.60;4.00
55449;PMS5003;41318;58.724;50.180;2023-04-15T05:03:14;8.80;5.60;3.20
55449;PMS5003;41318;58.724;50.180;2023-04-15T05:05:48;3.60;2.00;1.00
55449;PMS5003;41318;58.724;50.180;2023-04-15T05:08:22;0.60;0.60;0.40
55449;PMS5003;41318;58.724;50.180;2023-04-15T05:10:55;2.00;2.00;1.00
55449;PMS5003;41318;58.724;50.180;2023-04-15T05:13:29;0.40;0.40;0.00
55449;PMS5003;41318;58.724;50.180;2023-04-15T05:16:22;1.20;1.20;1.00
55449;PMS5003;41318;58.724;50.180;2023-04-15T05:18:57;0.80;0.80;0.00
55449;PMS5003;41318;58.724;50.180;2023-04-15T05:21:30;4.20;2.80;1.40
55449;PMS5003;41318;58.724;50.180;2023-04-15T05:24:04;2.00;2.00;1.40
55449;PMS5003;41318;58.724;50.180;2023-04-15T05:26:37;0.20;0.20;0.00
55449;PMS5003;41318;58.724;50.180;2023-04-15T05:29:11;1.00;1.00;1.00
55449;PMS5003;41318;58.724;50.180;2023-04-15T05:31:44;6.80;6.80;4.20
55449;PMS5003;41318;58.724;50.180;2023-04-15T05:34:18;8.00;8.00;5.20
55449;PMS5003;41318;58.724;50.180;2023-04-15T05:36:52;3.80;3.80;3.60
55449;PMS5003;41318;58.724;50.180;2023-04-15T05:39:25;0.00;0.00;0.00
55449;PMS5003;41318;58.724;50.180;2023-04-15T05:41:59;5.20;5.20;4.60
55449;PMS5003;41318;58.724;50.180;2023-04-15T05:44:33;2.00;2.00;1.40
55449;PMS5003;41318;58.724;50.180;2023-04-15T05:47:07;1.60;1.60;0.80
55449;PMS5003;41318;58.724;50.180;2023-04-15T05:49:41;3.20;2.80;2.00
55449;PMS5003;41318;58.724;50.180;2023-04-15T05:52:15;1.00;1.00;1.00
55449;PMS5003;41318;58.724;50.180;2023-04-15T05:54:49;0.40;0.40;0.00
55449;PMS5003;41318;58.724;50.180;2023-04-15T05:57:22;2.80;2.80;1.60
55449;PMS5003;41318;58.724;50.180;2023-04-15T05:59:56;1.40;1.40;0.40
55449;PMS5003;41318;58.724;50.180;2023-04-15T06:02:29;1.00;1.00;0.80
55449;PMS5003;41318;58.724;50.180;2023-04-15T06:05:22;7.60;7.60;6.00
55449;PMS5003;41318;58.724;50.180;2023-04-15T06:07:55;1.80;1.80;1.00
55449;PMS5003;41318;58.724;50.180;2023-04-15T06:10:29;6.80;6.80;5.00
55449;PMS5003;41318;58.724;50.180;2023-04-15T06:13:07;0.40;0.40;0.00
55449;PMS5003;41318;58.724;50.180;2023-04-15T06:15:41;23.00;22.60;19.20
55449;PMS5003;41318;58.724;50.180;2023-04-15T06:18:15;1.80;1.80;1.60
55449;PMS5003;41318;58.724;50.180;2023-04-15T06:20:48;0.80;0.80;0.80
55449;PMS5003;41318;58.724;50.180;2023-04-15T06:23:41;19.00;19.00;16.40
55449;PMS5003;41318;58.724;50.180;2023-04-15T06:26:15;1.80;1.80;1.00
55449;PMS5003;41318;58.724;50.180;2023-04-15T06:28:48;16.20;16.20;12.80
55449;PMS5003;41318;58.724;50.180;2023-04-15T06:31:21;67.40;57.20;41.60
55449;PMS5003;41318;58.724;50.180;2023-04-15T06:33:53;3.40;3.40;2.20
55449;PMS5003;41318;58.724;50.180;2023-04-15T06:36:26;4.20;4.20;2.00
55449;PMS5003;41318;58.724;50.180;2023-04-15T06:38:58;1.40;1.40;1.00
55449;PMS5003;41318;58.724;50.180;2023-04-15T06:41:31;3.20;3.20;2.00
55449;PMS5003;41318;58.724;50.180;2023-04-15T06:44:03;6.80;6.80;4.80
55449;PMS5003;41318;58.724;50.180;2023-04-15T06:46:35;5.00;5.00;3.80
55449;PMS5003;41318;58.724;50.180;2023-04-15T06:49:08;3.00;3.00;2.60
55449;PMS5003;41318;58.724;50.180;2023-04-15T06:51:40;0.60;0.60;0.00
55449;PMS5003;41318;58.724;50.180;2023-04-15T06:54:13;1.00;1.00;1.00
55449;PMS5003;41318;58.724;50.180;2023-04-15T06:56:45;1.80;1.80;1.00
55449;PMS5003;41318;58.724;50.180;2023-04-15T06:59:18;2.20;2.20;1.80
55449;PMS5003;41318;58.724;50.180;2023-04-15T07:01:50;1.00;1.00;0.00
55449;PMS5003;41318;58.724;50.180;2023-04-15T07:04:23;7.20;7.20;5.20
55449;PMS5003;41318;58.724;50.180;2023-04-15T07:06:55;3.00;3.00;2.00
55449;PMS5003;41318;58.724;50.180;2023-04-15T07:09:27;2.00;2.00;1.80
55449;PMS5003;41318;58.724;50.180;2023-04-15T07:12:00;13.40;13.40;9.40
55449;PMS5003;41318;58.724;50.180;2023-04-15T07:14:32;1.00;1.00;0.00
55449;PMS5003;41318;58.724;50.180;2023-04-15T07:17:04;1.60;1.60;1.20
55449;PMS5003;41318;58.724;50.180;2023-04-15T07:19:37;3.00;3.00;2.80
55449;PMS5003;41318;58.724;50.180;2023-04-15T07:22:09;3.00;3.00;1.20
55449;PMS5003;41318;58.724;50.180;2023-04-15T07:24:41;1.20;1.20;1.00
55449;PMS5003;41318;58.724;50.180;2023-04-15T07:27:14;5.80;5.00;2.20
55449;PMS5003;41318;58.724;50.180;2023-04-15T07:29:47;0.20;0.20;0.00
55449;PMS5003;41318;58.724;50.180;2023-04-15T07:32:19;2.00;2.00;1.80
55449;PMS5003;41318;58.724;50.180;2023-04-15T07:34:51;0.80;0.80;0.80
55449;PMS5003;41318;58.724;50.180;2023-04-15T07:37:24;2.40;2.20;2.00
55449;PMS5003;41318;58.724;50.180;2023-04-15T07:39:56;0.00;0.00;0.00
55449;PMS5003;41318;58.724;50.180;2023-04-15T07:45:59;0.80;0.80;0.40
55449;PMS5003;41318;58.724;50.180;2023-04-15T07:48:32;10.20;8.00;5.00
55449;PMS5003;41318;58.724;50.180;2023-04-15T07:51:04;2.00;2.00;1.00
55449;PMS5003;41318;58.724;50.180;2023-04-15T07:53:36;2.00;1.60;1.20
55449;PMS5003;41318;58.724;50.180;2023-04-15T07:56:09;1.20;1.20;1.00
55449;PMS5003;41318;58.724;50.180;2023-04-15T07:58:41;0.20;0.20;0.00
55449;PMS5003;41318;58.724;50.180;2023-04-15T08:01:14;10.40;10.40;6.60
55449;PMS5003;41318;58.724;50.180;2023-04-15T08:03:46;1.00;1.00;0.80
55449;PMS5003;41318;58.724;50.180;2023-04-15T08:06:19;1.00;1.00;1.00
55449;PMS5003;41318;58.724;50.180;2023-04-15T08:08:51;0.00;0.00;0.00
55449;PMS5003;41318;58.724;50.180;2023-04-15T08:11:23;2.00;2.00;1.20
55449;PMS5003;41318;58.724;50.180;2023-04-15T08:13:55;16.00;16.00;14.80
55449;PMS5003;41318;58.724;50.180;2023-04-15T08:16:27;2.00;2.00;1.00
55449;PMS5003;41318;58.724;50.180;2023-04-15T08:19:00;1.00;1.00;1.00
55449;PMS5003;41318;58.724;50.180;2023-04-15T08:21:32;0.00;0.00;0.00
55449;PMS5003;41318;58.724;50.180;2023-04-15T08:24:04;1.40;1.40;1.20
55449;PMS5003;41318;58.724;50.180;2023-04-15T08:26:37;1.40;1.40;1.00
55449;PMS5003;41318;58.724;50.180;2023-04-15T08:29:09;3.00;3.00;3.00
55449;PMS5003;41318;58.724;50.180;2023-04-15T08:32:00;9.40;9.40;7.00
55449;PMS5003;41318;58.724;50.180;2023-04-15T08:34:32;1.00;1.00;1.00
55449;PMS5003;41318;58.724;50.180;2023-04-15T08:37:05;2.40;2.40;1.40
55449;PMS5003;41318;58.724;50.180;2023-04-15T08:39:37;0.00;0.00;0.00
55449;PMS5003;41318;58.724;50.180;2023-04-15T08:42:10;1.40;1.40;1.40
55449;PMS5003;41318;58.724;50.180;2023-04-15T08:44:43;2.00;2.00;1.80
55449;PMS5003;41318;58.724;50.180;2023-04-15T08:47:17;0.00;0.00;0.00
55449;PMS5003;41318;58.724;50.180;2023-04-15T08:49:51;1.00;1.00;0.80
55449;PMS5003;41318;58.724;50.180;2023-04-15T08:52:25;0.00;0.00;0.00
55449;PMS5003;41318;58.724;50.180;2023-04-15T08:54:58;1.00;1.00;1.00
55449;PMS5003;41318;58.724;50.180;2023-04-15T08:57:31;0.60;0.60;0.40
55449;PMS5003;41318;58.724;50.180;2023-04-15T09:00:04;0.00;0.00;0.00
55449;PMS5003;41318;58.724;50.180;2023-04-15T09:02:36;2.00;2.00;1.60
55449;PMS5003;41318;58.724;50.180;2023-04-15T09:05:09;2.20;2.20;1.20
55449;PMS5003;41318;58.724;50.180;2023-04-15T09:07:41;0.80;0.80;0.60
55449;PMS5003;41318;58.724;50.180;2023-04-15T09:10:32;0.00;0.00;0.00
55449;PMS5003;41318;58.724;50.180;2023-04-15T09:13:04;2.20;2.20;1.00
55449;PMS5003;41318;58.724;50.180;2023-04-15T09:15:39;1.20;1.20;0.60
55449;PMS5003;41318;58.724;50.180;2023-04-15T09:18:11;1.60;1.60;1.60
55449;PMS5003;41318;58.724;50.180;2023-04-15T09:20:44;11.00;7.00;2.00
55449;PMS5003;41318;58.724;50.180;2023-04-15T09:23:16;6.20;5.60;2.40
55449;PMS5003;41318;58.724;50.180;2023-04-15T09:25:48;17.20;16.00;7.00
55449;PMS5003;41318;58.724;50.180;2023-04-15T09:28:24;13.00;12.60;7.20
55449;PMS5003;41318;58.724;50.180;2023-04-15T09:30:59;2.80;2.80;1.60
55449;PMS5003;41318;58.724;50.180;2023-04-15T09:33:33;0.00;0.00;0.00
55449;PMS5003;41318;58.724;50.180;2023-04-15T09:36:05;4.00;4.00;3.00
55449;PMS5003;41318;58.724;50.180;2023-04-15T09:38:47;1.00;0.60;0.00
55449;PMS5003;41318;58.724;50.180;2023-04-15T09:41:25;2.60;2.60;2.00
55449;PMS5003;41318;58.724;50.180;2023-04-15T09:43:57;1.80;1.80;1.00
55449;PMS5003;41318;58.724;50.180;2023-04-15T09:46:43;1.80;1.60;1.00
55449;PMS5003;41318;58.724;50.180;2023-04-15T09:49:15;3.40;3.40;2.80
55449;PMS5003;41318;58.724;50.180;2023-04-15T09:51:48;1.00;1.00;1.00
55449;PMS5003;41318;58.724;50.180;2023-04-15T09:54:21;1.20;1.20;1.00
55449;PMS5003;41318;58.724;50.180;2023-04-15T09:57:11;9.20;9.00;7.60
55449;PMS5003;41318;58.724;50.180;2023-04-15T09:59:43;10.00;9.60;8.00
55449;PMS5003;41318;58.724;50.180;2023-04-15T10:02:17;14.80;14.60;10.20
55449;PMS5003;41318;58.724;50.180;2023-04-15T10:04:49;6.80;6.80;4.00
55449;PMS5003;41318;58.724;50.180;2023-04-15T10:07:22;4.20;4.00;2.40
55449;PMS5003;41318;58.724;50.180;2023-04-15T10:09:56;4.00;4.00;1.80
55449;PMS5003;41318;58.724;50.180;2023-04-15T10:12:30;1.00;1.00;1.00
55449;PMS5003;41318;58.724;50.180;2023-04-15T10:15:04;4.40;3.80;2.20
55449;PMS5003;41318;58.724;50.180;2023-04-15T10:17:36;2.40;2.40;2.00
55449;PMS5003;41318;58.724;50.180;2023-04-15T10:20:27;0.00;0.00;0.00
55449;PMS5003;41318;58.724;50.180;2023-04-15T10:23:00;1.80;1.80;1.00
55449;PMS5003;41318;58.724;50.180;2023-04-15T10:25:52;1.00;1.00;1.00
55449;PMS5003;41318;58.724;50.180;2023-04-15T10:28:25;1.60;1.60;1.40
55449;PMS5003;41318;58.724;50.180;2023-04-15T10:30:58;0.60;0.60;0.60
55449;PMS5003;41318;58.724;50.180;2023-04-15T10:33:30;1.00;1.00;0.80
55449;PMS5003;41318;58.724;50.180;2023-04-15T10:36:02;8.40;8.40;6.60
55449;PMS5003;41318;58.724;50.180;2023-04-15T10:38:36;2.00;2.00;2.00
55449;PMS5003;41318;58.724;50.180;2023-04-15T10:41:27;1.00;1.00;1.00
55449;PMS5003;41318;58.724;50.180;2023-04-15T10:44:05;1.00;1.00;1.00
55449;PMS5003;41318;58.724;50.180;2023-04-15T10:46:43;10.00;8.60;4.20
55449;PMS5003;41318;58.724;50.180;2023-04-15T10:49:17;4.00;4.00;2.60
55449;PMS5003;41318;58.724;50.180;2023-04-15T10:51:58;8.00;8.00;4.20
55449;PMS5003;41318;58.724;50.180;2023-04-15T10:54:31;13.60;13.60;8.40
55449;PMS5003;41318;58.724;50.180;2023-04-15T10:59:37;0.60;0.40;0.40
55449;PMS5003;41318;58.724;50.180;2023-04-15T11:02:11;1.00;1.00;0.40
55449;PMS5003;41318;58.724;50.180;2023-04-15T11:15:43;0.00;0.00;0.00
55449;PMS5003;41318;58.724;50.180;2023-04-15T11:18:21;4.60;4.60;2.80
55449;PMS5003;41318;58.724;50.180;2023-04-15T11:20:54;0.20;0.20;0.20
55449;PMS5003;41318;58.724;50.180;2023-04-15T11:26:06;2.00;2.00;2.00
55449;PMS5003;41318;58.724;50.180;2023-04-15T11:28:59;1.00;1.00;0.20
55449;PMS5003;41318;58.724;50.180;2023-04-15T11:31:32;5.80;5.80;5.00
55449;PMS5003;41318;58.724;50.180;2023-04-15T11:34:04;2.00;2.00;1.80
55449;PMS5003;41318;58.724;50.180;2023-04-15T11:36:36;2.40;2.40;2.00
55449;PMS5003;41318;58.724;50.180;2023-04-15T11:39:08;1.80;1.80;1.00
55449;PMS5003;41318;58.724;50.180;2023-04-15T11:41:40;1.00;1.00;1.00
55449;PMS5003;41318;58.724;50.180;2023-04-15T11:44:17;0.20;0.20;0.00
55449;PMS5003;41318;58.724;50.180;2023-04-15T11:46:49;0.00;0.00;0.00
55449;PMS5003;41318;58.724;50.180;2023-04-15T11:49:28;0.80;0.80;0.60
55449;PMS5003;41318;58.724;50.180;2023-04-15T11:52:00;1.00;1.00;1.00
55449;PMS5003;41318;58.724;50.180;2023-04-15T11:54:31;4.20;4.20;2.80
55449;PMS5003;41318;58.724;50.180;2023-04-15T11:57:02;12.60;12.00;7.20
55449;PMS5003;41318;58.724;50.180;2023-04-15T11:59:42;0.60;0.60;0.00
55449;PMS5003;41318;58.724;50.180;2023-04-15T12:02:13;3.00;3.00;2.00
55449;PMS5003;41318;58.724;50.180;2023-04-15T12:04:44;2.00;2.00;2.00
55449;PMS5003;41318;58.724;50.180;2023-04-15T12:07:15;4.20;4.20;3.00
55449;PMS5003;41318;58.724;50.180;2023-04-15T12:09:53;2.60;2.60;2.00
55449;PMS5003;41318;58.724;50.180;2023-04-15T12:12:27;3.40;3.40;3.00
55449;PMS5003;41318;58.724;50.180;2023-04-15T12:14:58;0.00;0.00;0.00
55449;PMS5003;41318;58.724;50.180;2023-04-15T12:17:29;13.50;13.25;10.50
55449;PMS5003;41318;58.724;50.180;2023-04-15T12:20:01;12.20;12.20;5.60
55449;PMS5003;41318;58.724;50.180;2023-04-15T12:22:36;5.20;4.20;3.20
55449;PMS5003;41318;58.724;50.180;2023-04-15T12:25:08;3.00;3.00;2.00
55449;PMS5003;41318;58.724;50.180;2023-04-15T12:27:38;9.00;8.75;7.00
55449;PMS5003;41318;58.724;50.180;2023-04-15T12:30:28;2.00;2.00;1.00
55449;PMS5003;41318;58.724;50.180;2023-04-15T12:32:59;20.40;20.40;13.80
55449;PMS5003;41318;58.724;50.180;2023-04-15T12:35:31;5.80;5.80;5.20
55449;PMS5003;41318;58.724;50.180;2023-04-15T12:38:21;10.40;10.00;8.00
55449;PMS5003;41318;58.724;50.180;2023-04-15T12:40:52;5.50;5.50;3.75
55449;PMS5003;41318;58.724;50.180;2023-04-15T12:43:23;1.00;1.00;1.00
55449;PMS5003;41318;58.724;50.180;2023-04-15T12:46:13;10.60;10.60;7.80
55449;PMS5003;41318;58.724;50.180;2023-04-15T12:48:45;5.60;5.60;4.20
55449;PMS5003;41318;58.724;50.180;2023-04-15T12:51:16;9.75;9.75;7.25
55449;PMS5003;41318;58.724;50.180;2023-04-15T12:53:47;7.20;6.80;4.40
55449;PMS5003;41318;58.724;50.180;2023-04-15T12:56:19;10.80;10.80;8.20
55449;PMS5003;41318;58.724;50.180;2023-04-15T12:58:50;20.50;20.50;11.50
55449;PMS5003;41318;58.724;50.180;2023-04-15T13:01:21;5.80;5.80;4.00
55449;PMS5003;41318;58.724;50.180;2023-04-15T13:04:11;3.60;2.20;1.00
55449;PMS5003;41318;58.724;50.180;2023-04-15T13:06:42;8.00;8.00;5.40
55449;PMS5003;41318;58.724;50.180;2023-04-15T13:09:13;4.20;4.20;3.00
55449;PMS5003;41318;58.724;50.180;2023-04-15T13:11:45;3.00;3.00;2.80
55449;PMS5003;41318;58.724;50.180;2023-04-15T13:14:16;2.80;2.80;2.00
55449;PMS5003;41318;58.724;50.180;2023-04-15T13:16:47;8.80;8.80;5.40
55449;PMS5003;41318;58.724;50.180;2023-04-15T13:19:18;2.60;2.60;2.40
55449;PMS5003;41318;58.724;50.180;2023-04-15T13:21:49;3.00;3.00;2.60
55449;PMS5003;41318;58.724;50.180;2023-04-15T13:24:20;0.00;0.00;0.00
55449;PMS5003;41318;58.724;50.180;2023-04-15T13:27:09;3.00;3.00;2.60
55449;PMS5003;41318;58.724;50.180;2023-04-15T13:29:41;6.20;6.00;4.40
55449;PMS5003;41318;58.724;50.180;2023-04-15T13:32:31;4.80;4.80;3.00
55449;PMS5003;41318;58.724;50.180;2023-04-15T13:35:02;6.20;6.20;5.00
55449;PMS5003;41318;58.724;50.180;2023-04-15T13:37:34;8.00;8.00;5.20
55449;PMS5003;41318;58.724;50.180;2023-04-15T13:40:05;7.00;7.00;5.00
55449;PMS5003;41318;58.724;50.180;2023-04-15T13:42:37;28.60;27.40;18.00
55449;PMS5003;41318;58.724;50.180;2023-04-15T13:45:08;9.00;9.00;8.00
55449;PMS5003;41318;58.724;50.180;2023-04-15T13:47:39;5.00;5.00;4.20
55449;PMS5003;41318;58.724;50.180;2023-04-15T13:50:11;6.00;6.00;4.00
55449;PMS5003;41318;58.724;50.180;2023-04-15T13:52:42;8.00;8.00;6.00
55449;PMS5003;41318;58.724;50.180;2023-04-15T13:55:13;19.00;19.00;14.20
55449;PMS5003;41318;58.724;50.180;2023-04-15T13:57:45;5.00;5.00;3.00
55449;PMS5003;41318;58.724;50.180;2023-04-15T14:00:16;6.80;6.80;5.00
55449;PMS5003;41318;58.724;50.180;2023-04-15T14:02:47;5.00;5.00;3.60
55449;PMS5003;41318;58.724;50.180;2023-04-15T14:05:18;9.40;9.40;7.60
55449;PMS5003;41318;58.724;50.180;2023-04-15T14:07:49;9.80;9.80;5.60
55449;PMS5003;41318;58.724;50.180;2023-04-15T14:10:20;42.00;37.60;25.60
55449;PMS5003;41318;58.724;50.180;2023-04-15T14:12:51;4.00;4.00;3.25
55449;PMS5003;41318;58.724;50.180;2023-04-15T14:15:22;10.00;10.00;8.00
55449;PMS5003;41318;58.724;50.180;2023-04-15T14:17:53;3.00;3.00;2.00
55449;PMS5003;41318;58.724;50.180;2023-04-15T14:20:25;13.40;13.40;10.20
55449;PMS5003;41318;58.724;50.180;2023-04-15T14:22:56;8.20;8.20;6.60
55449;PMS5003;41318;58.724;50.180;2023-04-15T14:25:45;15.20;15.20;11.40
55449;PMS5003;41318;58.724;50.180;2023-04-15T14:28:16;12.60;12.60;8.00
55449;PMS5003;41318;58.724;50.180;2023-04-15T14:31:05;13.40;13.40;10.80
55449;PMS5003;41318;58.724;50.180;2023-04-15T14:33:36;17.50;17.50;12.00
55449;PMS5003;41318;58.724;50.180;2023-04-15T14:36:08;11.50;11.00;8.50
55449;PMS5003;41318;58.724;50.180;2023-04-15T14:38:39;7.75;7.75;5.00
55449;PMS5003;41318;58.724;50.180;2023-04-15T14:41:10;6.00;6.00;5.00
55449;PMS5003;41318;58.724;50.180;2023-04-15T14:43:42;16.40;15.80;11.00
55449;PMS5003;41318;58.724;50.180;2023-04-15T14:46:13;18.00;18.00;14.75
55449;PMS5003;41318;58.724;50.180;2023-04-15T14:48:44;15.00;15.00;9.20
55449;PMS5003;41318;58.724;50.180;2023-04-15T14:51:15;16.67;16.67;11.67
55449;PMS5003;41318;58.724;50.180;2023-04-15T14:53:46;20.40;20.20;13.60
55449;PMS5003;41318;58.724;50.180;2023-04-15T14:56:17;23.50;23.50;16.00